This is the latest recevied weather packets stored in our database for station/object W1HVD. If no packets are shown the sender has not sent any weather packets the latest 10 day(s).
| Time | Temp. | Humidity | Pressure | Rain* | Wind** | Luminosity | Snow |
|---|---|---|---|---|---|---|---|
| 1777820661 | 8.89° C | 70% | 1005.6 hPa | 0 mm | - | 253 W/m² | - |
| 1777820357 | 8.89° C | 71% | 1005.8 hPa | 0 mm | - | 191 W/m² | - |
| 1777820055 | 8.33° C | 73% | 1005.9 hPa | 0 mm | - | 244 W/m² | - |
| 1777819751 | 8.33° C | 73% | 1005.8 hPa | 0 mm | - | 222 W/m² | - |
| 1777819450 | 8.33° C | 74% | 1005.6 hPa | 0 mm | - | 266 W/m² | - |
| 1777819147 | 8.33° C | 76% | 1005.7 hPa | 0 mm | - | 214 W/m² | - |
| 1777818843 | 7.78° C | 77% | 1005.5 hPa | 0 mm | - | 226 W/m² | - |
| 1777818539 | 7.78° C | 78% | 1005.7 hPa | 0 mm | - | 178 W/m² | - |
| 1777818238 | 7.78° C | 81% | 1005.5 hPa | 0 mm | - | 167 W/m² | - |
| 1777817933 | 7.78° C | 80% | 1005.7 hPa | 0 mm | - | 109 W/m² | - |
| 1777817630 | 8.89° C | 75% | 1005.7 hPa | 0 mm | - | 96 W/m² | - |
| 1777817327 | 9.44° C | 70% | 1005.4 hPa | 0 mm | - | 87 W/m² | - |
| 1777817024 | 10° C | 66% | 1005.3 hPa | 0 mm | - | 164 W/m² | - |
| 1777816720 | 10.56° C | 65% | 1005.2 hPa | 0 mm | - | 635 W/m² | - |
| 1777816418 | 10° C | 67% | 1005.2 hPa | 0 mm | - | 714 W/m² | - |
| 1777816116 | 9.44° C | 68% | 1005.4 hPa | 0 mm | - | 604 W/m² | - |
| 1777815813 | 8.89° C | 69% | 1005.4 hPa | 0 mm | - | 183 W/m² | - |
| 1777815510 | 8.89° C | 70% | 1005.5 hPa | 0 mm | - | 323 W/m² | - |
| 1777815207 | 8.89° C | 70% | 1005.4 hPa | 0 mm | - | 202 W/m² | - |
| 1777814904 | 8.89° C | 69% | 1005.6 hPa | 0 mm | - | 232 W/m² | - |
| 1777814600 | 8.89° C | 68% | 1005.8 hPa | 0 mm | - | 177 W/m² | - |
| 1777814298 | 8.89° C | 69% | 1005.6 hPa | 0 mm | - | 230 W/m² | - |
| 1777813994 | 8.89° C | 71% | 1005.6 hPa | 0 mm | - | 160 W/m² | - |
| 1777813692 | 8.89° C | 69% | 1005.6 hPa | 0 mm | - | 165 W/m² | - |
| 1777813389 | 8.89° C | 69% | 1005.8 hPa | 0 mm | - | 195 W/m² | - |
* Rain latest hour (hover to see other rain measurements)
** Current wind speed in m/s (hover to see current wind gust speed)